Etusivu
METAR-TAF:

METAR-TAF

Lentoasemat :

Zaragoza, Espanja

Leveyspiiri: 41-40N, Pituuspiiri: 001-01W, korkeus merenpinnasta: 263 m

Tämänhetkinen sää

Tämä raportti tehtiin 28 minuuttia sitten, kello 07.00 UTC
Tuuli 17 kn lännestä/luoteesta, vaihdellen lännen ja luoteen välillä
Lämpötila 10°C
Kosteus 66%
Ilmanpaine 1023 hPa
Näkyvyys 10 km tai enemmän
ei pilviä alle 1500 m:ssä eikä cumulonimbus-pilviä

METAR: LEZG 250700Z 30017KT 260V320 CAVOK 10/04 Q1023

Aika: 08:28 (07:28 UTC)

Sääennuste

Tämä raportti tehtiin 2 tuntia ja 28 minuuttia sitten, kello 05.00 UTC
Ennuste voimassa 25. päivästä klo 06 UTC - 26. päivään klo 06 UTC
Tuuli 15 kn lännestä/luoteesta
Näkyvyys 10 km tai enemmän
Muutamia pilviä 4000 ft:n korkeudessa
Ajoittain
25. päivästä klo 08 UTC - 25. päivään klo 22 UTC
Tuuli 25 kn luoteesta puuskistuen 35 kn:hen

TAF: LEZG 250500Z 2506/2606 29015KT 9999 FEW040 TX19/2514Z TN06/2606Z TEMPO 2508/2522 31025G35KT

Säähavainnot ja -ennusteet yli 4000 lentoasemalta (METAR- ja TAF-raportit).

Käytössä olevat sääasemat on merkitty karttaan keltaisilla ja punaisilla pisteillä.

Aseta hiiri pisteen päälle nähdäksesi sääaseman nimen.

Klikkaa sitten nähdäksesi säähavainnot ja -ennusteet.

Kartan vaihtaminen: klikkaa mustalla rastilla varustettuja vihreitä pisteitä, niin voit zoomata sisään; viivalla varustettua vihreää pistettä, niin voit zoomata ulos tai vihreitä nuolia, niin pääset viereisille kartoille.


METAR-TAF: